Highland, Minnesota
Current Conditions -  °F | °C
As of 5:15 PM on Friday 31 Oct 2014 (Local Time) from KFKA Reporting Station
Clear Clear  
Wind Chill: -2°   Ceiling: Unl
Heat Index:   Visibility: 10mi
Dew Point: -8°   Wind: 9mph
Humidity: 48%   Direction: 360°N
Pressure: 30.44"   Gusts: NA
Location:  43.7165°N, 91.9871°W
Report Text: KFKA 312215Z AUTO 36008KT 10SM CLR 02/M08 A3044 RMK AO2 T00201079
Loading
Personal Weather Stations






























Interactive Weather Map
Tropical Storm Tracking
New forecast layout! Learn more

10-Day Weather Forecast

Advertisements
Track Severe Weather on mobile